This is the latest recevied weather packets stored in our database for station/object HJ3DAG-13. If no packets are shown the sender has not sent any weather packets the latest 10 day(s).
| Time | Temp. | Humidity | Pressure | Rain* | Wind** | Luminosity | Snow |
|---|---|---|---|---|---|---|---|
| 1777988072 | 11.67° C | 98% | 1018 hPa | 0 mm | - | - | - |
| 1777987850 | 13.33° C | 95% | 1018 hPa | 0 mm | - | - | - |
| 1777987250 | 14.44° C | 91% | 1018 hPa | 0 mm | - | - | - |
| 1777986872 | 13.89° C | 92% | 1018 hPa | 0 mm | - | - | - |
| 1777986650 | 12.78° C | 96% | 1018 hPa | 0 mm | - | - | - |
| 1777986272 | 13.33° C | 94% | 1018 hPa | 0 mm | - | - | - |
| 1777986050 | 12.78° C | 95% | 1018 hPa | 0 mm | - | - | - |
| 1777985450 | 12.22° C | 98% | 1018 hPa | 0 mm | - | - | - |
| 1777985072 | 12.22° C | 98% | 1018 hPa | 0 mm | - | - | - |
| 1777984850 | 12.22° C | 98% | 1018 hPa | 0 mm | - | - | - |
| 1777984472 | 11.67° C | 98% | 1018 hPa | 0 mm | - | - | - |
| 1777984250 | 11.67° C | 98% | 1018 hPa | 0 mm | - | - | - |
| 1777983650 | 11.67° C | 98% | 1018 hPa | 0 mm | - | - | - |
| 1777983272 | 11.67° C | 98% | 1018 hPa | 0 mm | - | - | - |
| 1777983050 | 11.67° C | 98% | 1018 hPa | 0 mm | - | - | - |
| 1777982672 | 11.67° C | 98% | 1018 hPa | 0 mm | - | - | - |
| 1777982450 | 11.67° C | 98% | 1018 hPa | 0 mm | - | - | - |
| 1777982072 | 11.67° C | 98% | 1018 hPa | 0 mm | - | - | - |
| 1777981849 | 11.67° C | 98% | 1018 hPa | 0 mm | - | - | - |
| 1777981472 | 11.67° C | 98% | 1018 hPa | 0 mm | - | - | - |
| 1777981250 | 11.67° C | 98% | 1018 hPa | 0 mm | - | - | - |
| 1777980872 | 11.67° C | 98% | 1018 hPa | 0 mm | - | - | - |
| 1777980650 | 11.67° C | 98% | 1018 hPa | 0 mm | - | - | - |
| 1777980050 | 11.67° C | 98% | 1018 hPa | 0 mm | - | - | - |
| 1777979672 | 11.67° C | 98% | 1018 hPa | 0 mm | - | - | - |
* Rain latest hour (hover to see other rain measurements)
** Current wind speed in m/s (hover to see current wind gust speed)